Agunsa Capella — CBCW — position and weather

sailwx.info

Track history (hours):
 
Tides and Currents Weather Stations Pressure Air Temp Water Temp Dewpoint Dewpoint Depression Visibility Wind Speed Wind Dir Waves Ship Positions

Agunsa Capella

Last reported at 2018-Apr-22 13:58 UTC. Time now 2018-Apr-23 07:23 UTC.
Position S 33°05' W 071°47'.

Length 78 m; draft 5.6 m.

Type: Tanker. MMSI: 725001506.

Date/timePositionNaut miles runAvg speedWind from/ knotsBaromVisibWave heightAir tempDewpointWater temp
2018-Apr-22 13:58S 33°05' W 071°47'4 5.9
2018-Apr-22 13:20S 33°02' W 071°43'2 6.1
2018-Apr-22 13:00S 33°01' W 071°42'3 6.2
2018-Apr-22 12:30S 33°01' W 071°38'2 3.4
2018-Apr-22 11:56S 33°02' W 071°36'0 0.2
2018-Apr-22 11:29S 33°02' W 071°36'0 0.0
2018-Apr-22 09:11S 33°02' W 071°36'0 0.0
2018-Apr-21 22:29S 33°02' W 071°36'0 0.0
2018-Apr-21 22:00S 33°02' W 071°36'0 0.0
2018-Apr-21 21:29S 33°02' W 071°36'0 0.0
2018-Apr-21 20:57S 33°02' W 071°36'0 0.0
2018-Apr-21 20:29S 33°02' W 071°36'0 0.0
2018-Apr-21 19:59S 33°02' W 071°36'0 0.0
2018-Apr-21 19:29S 33°02' W 071°36'0 0.0
2018-Apr-21 18:59S 33°02' W 071°36'0 0.0
2018-Apr-21 18:24S 33°02' W 071°36'0 0.0
2018-Apr-21 16:56S 33°02' W 071°36'0 0.0
2018-Apr-21 16:29S 33°02' W 071°36'0 0.0
2018-Apr-21 15:56S 33°02' W 071°36'0 0.0
2018-Apr-21 15:29S 33°02' W 071°36'0 0.0
2018-Apr-21 14:59S 33°02' W 071°36'0 0.0
2018-Apr-21 14:29S 33°02' W 071°36'0 0.0
2018-Apr-21 13:59S 33°02' W 071°36'0 0.0
2018-Apr-21 13:23S 33°02' W 071°36'0 0.1
2018-Apr-21 13:00S 33°02' W 071°36'0 0.0
2018-Apr-21 12:29S 33°02' W 071°36'0 0.0
2018-Apr-21 11:56S 33°02' W 071°36'0 0.1
2018-Apr-21 11:26S 33°02' W 071°36'0 0.0
2018-Apr-21 05:38S 33°02' W 071°36'0 0.0
2018-Apr-21 05:26S 33°02' W 071°36'0 0.0
2018-Apr-20 22:29S 33°02' W 071°36'0 0.1
2018-Apr-20 21:53S 33°02' W 071°36'0 0.0
2018-Apr-20 21:29S 33°02' W 071°36'0 0.0
2018-Apr-20 20:56S 33°02' W 071°36'0 0.1
2018-Apr-20 20:29S 33°02' W 071°36'0 0.1
2018-Apr-20 19:59S 33°02' W 071°36'0 0.0
2018-Apr-20 19:20S 33°02' W 071°36'17 0.4
2018-Apr-18 23:24S 32°46' W 071°30'2 5.9
2018-Apr-18 23:00S 32°46' W 071°33'3 6.9
2018-Apr-18 22:31S 32°49' W 071°34'4 7.2
2018-Apr-18 22:01S 32°52' W 071°35'4 7.2
2018-Apr-18 21:30S 32°56' W 071°36'4 7.6
2018-Apr-18 21:00S 32°60' W 071°36'2 4.6
2018-Apr-18 20:30S 33°02' W 071°36'0 0.1
2018-Apr-18 20:00S 33°02' W 071°36'0 0.0
2018-Apr-18 19:30S 33°02' W 071°36'0 0.0
2018-Apr-18 16:14S 33°02' W 071°36'0 0.0
2018-Apr-18 16:00S 33°02' W 071°36'  
2018-Apr-15 22:31S 33°02' W 071°36'0 0.1
2018-Apr-15 22:22S 33°02' W 071°36'0 0.0
2018-Apr-15 20:46S 33°02' W 071°36'0 0.0
2018-Apr-15 20:22S 33°02' W 071°36'0 0.0
2018-Apr-15 19:58S 33°02' W 071°36'0 0.0
2018-Apr-15 19:07S 33°02' W 071°36'0 0.0
2018-Apr-15 18:55S 33°02' W 071°36'0 0.0
2018-Apr-15 18:28S 33°02' W 071°36'0 0.0
2018-Apr-15 17:58S 33°02' W 071°36'0 0.0
2018-Apr-15 17:28S 33°02' W 071°36'0 0.0
2018-Apr-15 16:01S 33°02' W 071°36'0 0.0
2018-Apr-15 15:49S 33°02' W 071°36'0 0.0
2018-Apr-15 14:55S 33°02' W 071°36'0 0.0
2018-Apr-15 14:22S 33°02' W 071°36'0 0.0
2018-Apr-15 13:58S 33°02' W 071°36'0 0.3
2018-Apr-15 13:22S 33°02' W 071°36'1 2.4
2018-Apr-15 13:00S 33°01' W 071°36'0 0.3
2018-Apr-15 12:27S 33°01' W 071°36'1 2.2
2018-Apr-15 12:00S 33°02' W 071°36'0 0.0
2018-Apr-15 10:27S 33°02' W 071°36'0 0.0
2018-Apr-15 01:24S 33°02' W 071°36'0 0.0
2018-Apr-14 23:27S 33°02' W 071°36'0 0.1
2018-Apr-14 22:42S 33°02' W 071°36'0 0.0
2018-Apr-14 22:30S 33°02' W 071°36'0 0.0
2018-Apr-14 21:57S 33°02' W 071°36'0 0.1
2018-Apr-14 21:30S 33°02' W 071°36'0 0.0
2018-Apr-14 20:51S 33°02' W 071°36'0 0.0
2018-Apr-14 20:30S 33°02' W 071°36'0 0.0
2018-Apr-14 20:00S 33°02' W 071°36'0 0.0
2018-Apr-14 19:30S 33°02' W 071°36'0 0.0
2018-Apr-14 19:00S 33°02' W 071°36'0 0.0
2018-Apr-14 18:30S 33°02' W 071°36'0 0.0
2018-Apr-14 18:00S 33°02' W 071°36'0 0.0
2018-Apr-14 17:30S 33°02' W 071°36'0 0.1
2018-Apr-14 17:00S 33°02' W 071°36'0 0.0
2018-Apr-14 06:33S 33°02' W 071°36'0 0.0
2018-Apr-14 06:24S 33°02' W 071°36'0 0.0
2018-Apr-14 06:00S 33°02' W 071°36'0 0.0
2018-Apr-14 01:40S 33°02' W 071°36'1 0.9
2018-Apr-14 01:07S 33°02' W 071°36'0 0.0
2018-Apr-13 09:18S 33°02' W 071°36'0 0.0
2018-Apr-13 08:54S 33°02' W 071°36'0 0.0
2018-Apr-13 06:45S 33°02' W 071°36'0 0.0
2018-Apr-13 06:24S 33°02' W 071°36'0 0.0
2018-Apr-13 01:12S 33°02' W 071°36'0 0.0
2018-Apr-12 23:03S 33°02' W 071°36'0 0.0
2018-Apr-12 22:54S 33°02' W 071°36'0 0.0
2018-Apr-12 22:21S 33°02' W 071°36'0 0.0
2018-Apr-12 21:15S 33°02' W 071°36'0 0.0
2018-Apr-12 21:00S 33°02' W 071°36'0 0.1
2018-Apr-12 20:24S 33°02' W 071°36'0 0.0
2018-Apr-12 15:00S 33°02' W 071°36'  
Track history (hours):
 
Tides and Currents Weather Stations Pressure Air Temp Water Temp Dewpoint Dewpoint Depression Visibility Wind Speed Wind Dir Waves Ship Positions

Agunsa Capella

Last reported at 2018-Apr-22 13:58 UTC. Time now 2018-Apr-23 07:23 UTC.
Position S 33°05' W 071°47'.

Length 78 m; draft 5.6 m.

Type: Tanker. MMSI: 725001506.

Date/timePositionNaut miles runAvg speedWind from/ knotsBaromVisibWave heightAir tempDewpointWater temp
2018-Apr-22 13:58S 33°05' W 071°47'4 5.9
2018-Apr-22 13:20S 33°02' W 071°43'2 6.1
2018-Apr-22 13:00S 33°01' W 071°42'3 6.2
2018-Apr-22 12:30S 33°01' W 071°38'2 3.4
2018-Apr-22 11:56S 33°02' W 071°36'0 0.2
2018-Apr-22 11:29S 33°02' W 071°36'0 0.0
2018-Apr-22 09:11S 33°02' W 071°36'0 0.0
2018-Apr-21 22:29S 33°02' W 071°36'0 0.0
2018-Apr-21 22:00S 33°02' W 071°36'0 0.0
2018-Apr-21 21:29S 33°02' W 071°36'0 0.0
2018-Apr-21 20:57S 33°02' W 071°36'0 0.0
2018-Apr-21 20:29S 33°02' W 071°36'0 0.0
2018-Apr-21 19:59S 33°02' W 071°36'0 0.0
2018-Apr-21 19:29S 33°02' W 071°36'0 0.0
2018-Apr-21 18:59S 33°02' W 071°36'0 0.0
2018-Apr-21 18:24S 33°02' W 071°36'0 0.0
2018-Apr-21 16:56S 33°02' W 071°36'0 0.0
2018-Apr-21 16:29S 33°02' W 071°36'0 0.0
2018-Apr-21 15:56S 33°02' W 071°36'0 0.0
2018-Apr-21 15:29S 33°02' W 071°36'0 0.0
2018-Apr-21 14:59S 33°02' W 071°36'0 0.0
2018-Apr-21 14:29S 33°02' W 071°36'0 0.0
2018-Apr-21 13:59S 33°02' W 071°36'0 0.0
2018-Apr-21 13:23S 33°02' W 071°36'0 0.1
2018-Apr-21 13:00S 33°02' W 071°36'0 0.0
2018-Apr-21 12:29S 33°02' W 071°36'0 0.0
2018-Apr-21 11:56S 33°02' W 071°36'0 0.1
2018-Apr-21 11:26S 33°02' W 071°36'0 0.0
2018-Apr-21 05:38S 33°02' W 071°36'0 0.0
2018-Apr-21 05:26S 33°02' W 071°36'0 0.0
2018-Apr-20 22:29S 33°02' W 071°36'0 0.1
2018-Apr-20 21:53S 33°02' W 071°36'0 0.0
2018-Apr-20 21:29S 33°02' W 071°36'0 0.0
2018-Apr-20 20:56S 33°02' W 071°36'0 0.1
2018-Apr-20 20:29S 33°02' W 071°36'0 0.1
2018-Apr-20 19:59S 33°02' W 071°36'0 0.0
2018-Apr-20 19:20S 33°02' W 071°36'17 0.4
2018-Apr-18 23:24S 32°46' W 071°30'2 5.9
2018-Apr-18 23:00S 32°46' W 071°33'3 6.9
2018-Apr-18 22:31S 32°49' W 071°34'4 7.2
2018-Apr-18 22:01S 32°52' W 071°35'4 7.2
2018-Apr-18 21:30S 32°56' W 071°36'4 7.6
2018-Apr-18 21:00S 32°60' W 071°36'2 4.6
2018-Apr-18 20:30S 33°02' W 071°36'0 0.1
2018-Apr-18 20:00S 33°02' W 071°36'0 0.0
2018-Apr-18 19:30S 33°02' W 071°36'0 0.0
2018-Apr-18 16:14S 33°02' W 071°36'0 0.0
2018-Apr-18 16:00S 33°02' W 071°36'  
2018-Apr-15 22:31S 33°02' W 071°36'0 0.1
2018-Apr-15 22:22S 33°02' W 071°36'0 0.0
2018-Apr-15 20:46S 33°02' W 071°36'0 0.0
2018-Apr-15 20:22S 33°02' W 071°36'0 0.0
2018-Apr-15 19:58S 33°02' W 071°36'0 0.0
2018-Apr-15 19:07S 33°02' W 071°36'0 0.0
2018-Apr-15 18:55S 33°02' W 071°36'0 0.0
2018-Apr-15 18:28S 33°02' W 071°36'0 0.0
2018-Apr-15 17:58S 33°02' W 071°36'0 0.0
2018-Apr-15 17:28S 33°02' W 071°36'0 0.0
2018-Apr-15 16:01S 33°02' W 071°36'0 0.0
2018-Apr-15 15:49S 33°02' W 071°36'0 0.0
2018-Apr-15 14:55S 33°02' W 071°36'0 0.0
2018-Apr-15 14:22S 33°02' W 071°36'0 0.0
2018-Apr-15 13:58S 33°02' W 071°36'0 0.3
2018-Apr-15 13:22S 33°02' W 071°36'1 2.4
2018-Apr-15 13:00S 33°01' W 071°36'0 0.3
2018-Apr-15 12:27S 33°01' W 071°36'1 2.2
2018-Apr-15 12:00S 33°02' W 071°36'0 0.0
2018-Apr-15 10:27S 33°02' W 071°36'0 0.0
2018-Apr-15 01:24S 33°02' W 071°36'0 0.0
2018-Apr-14 23:27S 33°02' W 071°36'0 0.1
2018-Apr-14 22:42S 33°02' W 071°36'0 0.0
2018-Apr-14 22:30S 33°02' W 071°36'0 0.0
2018-Apr-14 21:57S 33°02' W 071°36'0 0.1
2018-Apr-14 21:30S 33°02' W 071°36'0 0.0
2018-Apr-14 20:51S 33°02' W 071°36'0 0.0
2018-Apr-14 20:30S 33°02' W 071°36'0 0.0
2018-Apr-14 20:00S 33°02' W 071°36'0 0.0
2018-Apr-14 19:30S 33°02' W 071°36'0 0.0
2018-Apr-14 19:00S 33°02' W 071°36'0 0.0
2018-Apr-14 18:30S 33°02' W 071°36'0 0.0
2018-Apr-14 18:00S 33°02' W 071°36'0 0.0
2018-Apr-14 17:30S 33°02' W 071°36'0 0.1
2018-Apr-14 17:00S 33°02' W 071°36'0 0.0
2018-Apr-14 06:33S 33°02' W 071°36'0 0.0
2018-Apr-14 06:24S 33°02' W 071°36'0 0.0
2018-Apr-14 06:00S 33°02' W 071°36'0 0.0
2018-Apr-14 01:40S 33°02' W 071°36'1 0.9
2018-Apr-14 01:07S 33°02' W 071°36'0 0.0
2018-Apr-13 09:18S 33°02' W 071°36'0 0.0
2018-Apr-13 08:54S 33°02' W 071°36'0 0.0
2018-Apr-13 06:45S 33°02' W 071°36'0 0.0
2018-Apr-13 06:24S 33°02' W 071°36'0 0.0
2018-Apr-13 01:12S 33°02' W 071°36'0 0.0
2018-Apr-12 23:03S 33°02' W 071°36'0 0.0
2018-Apr-12 22:54S 33°02' W 071°36'0 0.0
2018-Apr-12 22:21S 33°02' W 071°36'0 0.0
2018-Apr-12 21:15S 33°02' W 071°36'0 0.0
2018-Apr-12 21:00S 33°02' W 071°36'0 0.1
2018-Apr-12 20:24S 33°02' W 071°36'0 0.0
2018-Apr-12 15:00S 33°02' W 071°36'  

Dump ship's entire track history